createdAt,value
2019-05-25T00:01:45.041Z,12.50
2019-05-25T00:04:16.451Z,11.33
2019-05-25T00:06:46.999Z,11.40
2019-05-25T00:09:17.528Z,9.95
2019-05-25T00:11:48.204Z,12.40
2019-05-25T00:14:18.974Z,12.40
2019-05-25T00:16:49.690Z,10.82
2019-05-25T00:19:20.406Z,13.43
2019-05-25T00:21:51.990Z,11.12
2019-05-25T00:24:22.727Z,11.73
2019-05-25T00:26:53.200Z,11.53
2019-05-25T00:29:23.923Z,10.65
2019-05-25T00:31:54.527Z,10.80
2019-05-25T00:34:25.438Z,11.65
2019-05-25T00:36:56.052Z,11.80
2019-05-25T00:39:26.877Z,10.85
2019-05-25T00:41:57.448Z,10.38
2019-05-25T00:44:28.037Z,11.18
2019-05-25T00:46:58.634Z,13.48
2019-05-25T00:49:29.390Z,13.10
2019-05-25T00:51:59.948Z,9.55
2019-05-25T00:54:30.683Z,10.95
2019-05-25T00:57:01.752Z,11.05
2019-05-25T00:59:32.633Z,10.32
2019-05-25T01:02:03.469Z,14.15
2019-05-25T01:04:34.353Z,13.45
2019-05-25T01:07:04.945Z,12.53
2019-05-25T01:09:35.906Z,12.45
2019-05-25T01:12:06.853Z,9.30
2019-05-25T01:14:37.746Z,9.28
2019-05-25T01:17:08.339Z,10.13
2019-05-25T01:19:40.262Z,8.78
2019-05-25T01:22:11.701Z,13.47
2019-05-25T01:24:44.770Z,11.25
2019-05-25T01:27:15.147Z,9.15
2019-05-25T01:29:46.306Z,10.32
2019-05-25T01:32:16.957Z,10.45
2019-05-25T01:34:47.604Z,11.20
2019-05-25T01:37:18.284Z,11.30
2019-05-25T01:39:48.830Z,14.30
2019-05-25T01:42:19.361Z,11.90
2019-05-25T01:44:50.037Z,11.50
2019-05-25T01:47:20.819Z,10.88
2019-05-25T01:49:52.487Z,11.63
2019-05-25T01:52:23.192Z,13.25
2019-05-25T01:54:59.896Z,12.28
2019-05-25T01:57:27.221Z,13.88
2019-05-25T01:59:57.898Z,12.90
2019-05-25T02:02:28.770Z,11.38
2019-05-25T02:04:59.834Z,10.87
2019-05-25T02:07:30.853Z,12.78
2019-05-25T02:10:02.160Z,13.00
2019-05-25T02:12:32.745Z,14.30
2019-05-25T02:15:03.369Z,12.35
2019-05-25T02:17:39.545Z,10.50
2019-05-25T02:20:10.346Z,12.10
2019-05-25T02:22:40.972Z,11.97
2019-05-25T02:25:18.248Z,11.60
2019-05-25T02:27:45.304Z,13.28
2019-05-25T02:30:17.792Z,21.65
2019-05-25T02:32:48.431Z,12.73
2019-05-25T02:35:25.780Z,11.50
2019-05-25T02:37:57.424Z,13.10
2019-05-25T02:40:29.023Z,10.45
2019-05-25T02:42:59.621Z,11.55
2019-05-25T02:45:30.351Z,12.55
2019-05-25T02:48:00.841Z,13.03
2019-05-25T02:50:31.508Z,10.63
2019-05-25T02:53:01.982Z,12.75
2019-05-25T02:55:34.767Z,11.53
2019-05-25T02:58:05.656Z,12.65
2019-05-25T03:00:36.916Z,11.05
2019-05-25T03:03:07.530Z,10.45
2019-05-25T03:05:38.098Z,13.43
2019-05-25T03:08:08.711Z,11.68
2019-05-25T03:10:40.256Z,12.88
2019-05-25T03:13:10.763Z,11.27
2019-05-25T03:15:41.662Z,11.53
2019-05-25T03:18:12.233Z,12.93
2019-05-25T03:20:42.789Z,11.13
2019-05-25T03:23:13.620Z,12.20
2019-05-25T03:25:49.523Z,11.70
2019-05-25T03:28:16.777Z,13.00
2019-05-25T03:30:47.375Z,11.33
2019-05-25T03:33:17.892Z,13.80
2019-05-25T03:35:49.179Z,11.20
2019-05-25T03:38:19.755Z,16.03
2019-05-25T03:40:50.362Z,12.80
2019-05-25T03:43:21.075Z,11.95
2019-05-25T03:45:51.774Z,12.73
2019-05-25T03:48:22.305Z,12.82
2019-05-25T03:50:52.988Z,13.95
2019-05-25T03:53:23.416Z,12.77
2019-05-25T03:56:05.230Z,12.53
2019-05-25T03:58:26.768Z,12.93
2019-05-25T04:00:57.570Z,15.30
2019-05-25T04:03:28.417Z,14.10
2019-05-25T04:05:58.927Z,14.23
2019-05-25T04:08:29.447Z,14.33
2019-05-25T04:11:00.741Z,13.00
2019-05-25T04:13:31.269Z,13.30
2019-05-25T04:16:02.423Z,14.20
2019-05-25T04:18:32.867Z,15.35
2019-05-25T04:21:03.445Z,14.05
2019-05-25T04:23:34.133Z,13.93
2019-05-25T04:26:21.502Z,14.03
2019-05-25T04:28:38.221Z,12.18
2019-05-25T04:31:09.045Z,12.70
2019-05-25T04:33:40.209Z,13.20
2019-05-25T04:36:11.257Z,13.38
2019-05-25T04:38:41.981Z,12.90
2019-05-25T04:41:13.319Z,14.85
2019-05-25T04:43:44.533Z,11.65
2019-05-25T04:46:15.307Z,12.78
2019-05-25T04:48:45.913Z,13.27
2019-05-25T04:51:16.567Z,13.35
2019-05-25T04:53:47.303Z,15.03
2019-05-25T04:56:17.899Z,12.60
2019-05-25T04:58:48.426Z,14.85
2019-05-25T05:01:22.428Z,13.15
2019-05-25T05:03:52.460Z,14.30
2019-05-25T05:06:23.503Z,15.28
2019-05-25T05:08:53.962Z,14.27
2019-05-25T05:11:24.911Z,14.07
2019-05-25T05:13:55.447Z,13.30
2019-05-25T05:16:26.015Z,14.80
2019-05-25T05:18:57.319Z,13.38
2019-05-25T05:21:27.846Z,13.13
2019-05-25T05:23:58.344Z,13.28
2019-05-25T05:26:28.884Z,15.40
2019-05-25T05:28:59.424Z,14.95
2019-05-25T05:31:29.987Z,15.60
2019-05-25T05:34:00.600Z,14.25
2019-05-25T05:36:32.001Z,16.37
2019-05-25T05:39:05.216Z,16.17
2019-05-25T05:41:38.718Z,13.23
2019-05-25T05:44:09.790Z,14.25
2019-05-25T05:46:41.747Z,16.17
2019-05-25T05:49:12.590Z,14.83
2019-05-25T05:51:47.658Z,14.10
2019-05-25T05:54:19.587Z,15.83
2019-05-25T05:56:50.394Z,15.13
2019-05-25T05:59:20.906Z,14.13
2019-05-25T06:01:51.826Z,16.05
2019-05-25T06:04:22.422Z,15.30
2019-05-25T06:06:52.944Z,17.05
2019-05-25T06:09:23.565Z,16.02
2019-05-25T06:11:54.540Z,17.23
2019-05-25T06:14:25.119Z,18.70
2019-05-25T06:16:55.670Z,16.40
2019-05-25T06:19:26.484Z,15.47
2019-05-25T06:21:57.081Z,15.98
2019-05-25T06:24:27.675Z,22.85
2019-05-25T06:26:58.199Z,16.65
2019-05-25T06:29:28.709Z,16.20
2019-05-25T06:31:59.283Z,14.07
2019-05-25T06:34:29.776Z,17.48
2019-05-25T06:37:00.779Z,20.10
2019-05-25T06:39:31.430Z,15.18
2019-05-25T06:42:02.031Z,16.42
2019-05-25T06:44:32.759Z,13.40
2019-05-25T06:47:03.419Z,15.72
2019-05-25T06:49:33.902Z,13.43
2019-05-25T06:52:04.784Z,15.75
2019-05-25T06:54:35.355Z,15.68
2019-05-25T06:57:05.979Z,14.13
2019-05-25T06:59:36.763Z,16.20
2019-05-25T07:02:07.494Z,13.55
2019-05-25T07:04:38.140Z,14.28
2019-05-25T07:07:09.224Z,17.87
2019-05-25T07:09:39.751Z,15.23
2019-05-25T07:12:10.668Z,14.98
2019-05-25T07:14:41.678Z,16.00
2019-05-25T07:17:12.342Z,14.98
2019-05-25T07:19:42.899Z,15.40
2019-05-25T07:22:13.435Z,15.17
2019-05-25T07:24:43.985Z,14.35
2019-05-25T07:27:14.660Z,16.10
2019-05-25T07:29:45.246Z,14.63
2019-05-25T07:32:15.719Z,16.03
2019-05-25T07:34:46.676Z,14.60
2019-05-25T07:37:17.879Z,18.02
2019-05-25T07:39:48.610Z,16.48
2019-05-25T07:42:20.193Z,13.93
2019-05-25T07:44:51.503Z,13.30
2019-05-25T07:47:28.778Z,13.27
2019-05-25T07:50:06.673Z,13.90
2019-05-25T07:52:38.207Z,15.38
2019-05-25T07:55:09.092Z,14.98
2019-05-25T07:57:39.749Z,14.40
2019-05-25T08:00:10.872Z,15.85
2019-05-25T08:02:41.390Z,13.48
2019-05-25T08:05:12.176Z,14.60
2019-05-25T08:07:43.693Z,12.90
2019-05-25T08:10:15.196Z,13.10
2019-05-25T08:12:45.756Z,14.70
2019-05-25T08:15:16.500Z,13.22
2019-05-25T08:17:47.053Z,12.70
2019-05-25T08:20:17.614Z,12.63
2019-05-25T08:22:48.483Z,13.83
2019-05-25T08:25:20.661Z,13.60
2019-05-25T08:27:51.205Z,13.40
2019-05-25T08:30:22.551Z,13.93
2019-05-25T08:32:53.918Z,14.23
2019-05-25T08:35:24.818Z,12.60
2019-05-25T08:37:55.771Z,11.97
2019-05-25T08:40:26.724Z,13.28
2019-05-25T08:42:57.639Z,11.70
2019-05-25T08:45:28.163Z,11.93
2019-05-25T08:47:58.868Z,13.25
2019-05-25T08:50:37.593Z,12.10
2019-05-25T08:53:03.001Z,14.83
2019-05-25T08:55:34.302Z,13.40
2019-05-25T08:58:04.829Z,11.75
2019-05-25T09:00:36.108Z,12.47
2019-05-25T09:03:08.073Z,10.98
2019-05-25T09:05:38.798Z,12.05
2019-05-25T09:08:09.681Z,12.13
2019-05-25T09:10:40.584Z,12.33
2019-05-25T09:13:12.417Z,12.93
2019-05-25T09:15:43.079Z,13.60
2019-05-25T09:18:13.603Z,10.95
2019-05-25T09:20:44.792Z,13.13
2019-05-25T09:23:15.891Z,10.55
2019-05-25T09:25:46.912Z,9.43
2019-05-25T09:28:17.439Z,11.28
2019-05-25T09:30:47.943Z,8.38
2019-05-25T09:33:18.620Z,8.13
2019-05-25T09:35:49.149Z,10.23
2019-05-25T09:38:19.768Z,13.15
2019-05-25T09:40:51.346Z,9.58
2019-05-25T09:43:22.467Z,9.20
2019-05-25T09:45:53.171Z,10.10
2019-05-25T09:48:24.737Z,9.55
2019-05-25T09:50:55.330Z,12.07
2019-05-25T09:53:25.818Z,9.28
2019-05-25T09:55:56.705Z,9.18
2019-05-25T09:58:27.276Z,8.30
2019-05-25T10:00:57.794Z,8.35
2019-05-25T10:03:28.662Z,9.05
2019-05-25T10:05:59.504Z,8.10
2019-05-25T10:08:30.511Z,9.28
2019-05-25T10:11:00.971Z,8.25
2019-05-25T10:13:31.580Z,8.95
2019-05-25T10:16:02.102Z,7.30
2019-05-25T10:18:33.436Z,6.07
2019-05-25T10:21:04.216Z,6.92
2019-05-25T10:23:34.832Z,5.58
2019-05-25T10:26:05.959Z,7.78
2019-05-25T10:28:36.369Z,7.63
2019-05-25T10:31:06.870Z,5.50
2019-05-25T10:33:37.479Z,7.80
2019-05-25T10:36:08.682Z,7.25
2019-05-25T10:38:39.288Z,6.37
2019-05-25T10:41:10.054Z,7.17
2019-05-25T10:43:40.545Z,11.67
2019-05-25T10:46:11.444Z,5.75
2019-05-25T10:48:42.871Z,5.47
2019-05-25T10:51:13.322Z,6.73
2019-05-25T10:53:44.042Z,4.80
2019-05-25T10:56:14.829Z,4.25
2019-05-25T10:58:45.690Z,4.83
2019-05-25T11:01:16.274Z,7.33
2019-05-25T11:03:47.196Z,5.37
2019-05-25T11:06:18.402Z,5.65
2019-05-25T11:08:48.966Z,5.90
2019-05-25T11:11:19.465Z,5.42
2019-05-25T11:13:50.777Z,10.38
2019-05-25T11:16:22.084Z,4.58
2019-05-25T11:18:52.654Z,5.10
2019-05-25T11:21:23.485Z,6.70
2019-05-25T11:23:54.155Z,4.50
2019-05-25T11:26:25.074Z,8.27
2019-05-25T11:28:55.651Z,7.03
2019-05-25T11:31:27.198Z,4.23
2019-05-25T11:33:57.735Z,4.00
2019-05-25T11:36:28.246Z,4.72
2019-05-25T11:38:58.828Z,7.10
2019-05-25T11:41:29.589Z,4.30
2019-05-25T11:44:00.080Z,6.55
2019-05-25T11:46:31.251Z,4.78
2019-05-25T11:49:02.659Z,6.30
2019-05-25T11:51:33.203Z,3.72
2019-05-25T11:54:03.763Z,4.77
2019-05-25T11:56:34.551Z,5.45
2019-05-25T11:59:05.670Z,3.90
2019-05-25T12:01:36.664Z,4.03
2019-05-25T12:04:07.560Z,5.67
2019-05-25T12:06:38.119Z,4.60
2019-05-25T12:09:09.221Z,5.53
2019-05-25T12:11:39.809Z,5.75
2019-05-25T12:14:10.528Z,5.05
2019-05-25T12:16:41.254Z,4.85
2019-05-25T12:19:14.834Z,4.12
2019-05-25T12:21:44.159Z,4.70
2019-05-25T12:24:14.739Z,5.03
2019-05-25T12:26:45.825Z,8.15
2019-05-25T12:29:16.324Z,4.57
2019-05-25T12:31:46.889Z,5.42
2019-05-25T12:34:17.532Z,5.95
2019-05-25T12:36:48.121Z,4.60
2019-05-25T12:39:19.069Z,5.17
2019-05-25T12:41:49.677Z,8.43
2019-05-25T12:44:20.969Z,5.10
2019-05-25T12:46:51.590Z,4.55
2019-05-25T12:49:22.814Z,4.92
2019-05-25T12:51:53.390Z,6.53
2019-05-25T12:54:24.297Z,5.27
2019-05-25T12:56:55.468Z,6.45
2019-05-25T12:59:26.051Z,5.08
2019-05-25T13:01:56.811Z,12.00
2019-05-25T13:04:27.342Z,6.58
2019-05-25T13:06:58.703Z,7.15
2019-05-25T13:09:29.732Z,8.73
2019-05-25T13:12:00.931Z,9.75
2019-05-25T13:14:31.504Z,10.58
2019-05-25T13:17:02.055Z,11.53
2019-05-25T13:19:32.760Z,7.03
2019-05-25T13:22:03.281Z,7.58
2019-05-25T13:24:33.961Z,6.28
2019-05-25T13:27:04.864Z,7.05
2019-05-25T13:29:35.942Z,4.35
2019-05-25T13:32:06.537Z,7.05
2019-05-25T13:34:37.067Z,6.35
2019-05-25T13:37:07.592Z,4.67
2019-05-25T13:39:38.136Z,4.37
2019-05-25T13:42:08.803Z,6.83
2019-05-25T13:44:39.464Z,3.60
2019-05-25T13:47:10.001Z,6.60
2019-05-25T13:49:41.110Z,5.12
2019-05-25T13:52:11.919Z,4.83
2019-05-25T13:54:42.462Z,4.77
2019-05-25T13:57:13.067Z,8.20
2019-05-25T13:59:44.438Z,4.83
2019-05-25T14:02:15.383Z,4.22
2019-05-25T14:04:45.938Z,4.65
2019-05-25T14:07:16.498Z,5.17
2019-05-25T14:09:47.029Z,4.87
2019-05-25T14:12:17.726Z,4.78
2019-05-25T14:14:49.555Z,6.12
2019-05-25T14:17:23.737Z,7.17
2019-05-25T14:19:56.447Z,4.80
2019-05-25T14:22:27.334Z,5.30
2019-05-25T14:24:57.843Z,5.33
2019-05-25T14:27:30.580Z,4.22
2019-05-25T14:30:01.965Z,6.95
2019-05-25T14:32:32.661Z,4.10
2019-05-25T14:35:03.259Z,4.22
2019-05-25T14:37:34.046Z,3.85
2019-05-25T14:40:11.288Z,5.72
2019-05-25T14:42:41.496Z,4.58
2019-05-25T14:45:13.741Z,5.80
2019-05-25T14:47:45.591Z,4.83
2019-05-25T14:50:17.255Z,5.87
2019-05-25T14:52:48.007Z,5.17
2019-05-25T14:55:20.566Z,4.57
2019-05-25T14:58:02.490Z,6.53
2019-05-25T15:00:30.270Z,6.70
2019-05-25T15:03:01.222Z,5.12
2019-05-25T15:05:32.111Z,5.03
2019-05-25T15:08:02.678Z,6.00
2019-05-25T15:10:33.378Z,6.70
2019-05-25T15:13:03.899Z,7.87
2019-05-25T15:15:35.787Z,4.15
2019-05-25T15:18:06.492Z,8.00
2019-05-25T15:20:37.131Z,4.10
2019-05-25T15:23:07.657Z,5.53
2019-05-25T15:25:39.467Z,5.28
2019-05-25T15:28:09.996Z,6.05
2019-05-25T15:30:41.479Z,6.12
2019-05-25T15:33:12.046Z,5.58
2019-05-25T15:35:43.503Z,4.62
2019-05-25T15:38:14.418Z,6.45
2019-05-25T15:40:45.286Z,5.12
2019-05-25T15:43:15.991Z,4.20
2019-05-25T15:45:47.901Z,4.65
2019-05-25T15:48:19.033Z,4.75
2019-05-25T15:50:59.391Z,5.85
2019-05-25T15:53:30.573Z,7.77
2019-05-25T15:56:01.142Z,5.05
2019-05-25T15:58:35.624Z,8.83
2019-05-25T16:01:07.053Z,6.42
2019-05-25T16:03:37.763Z,4.40
2019-05-25T16:06:09.677Z,8.10
2019-05-25T16:08:41.762Z,7.10
2019-05-25T16:11:12.978Z,6.42
2019-05-25T16:13:43.701Z,8.08
2019-05-25T16:16:14.394Z,4.50
2019-05-25T16:18:44.926Z,6.17
2019-05-25T16:21:15.496Z,4.77
2019-05-25T16:23:46.202Z,6.50
2019-05-25T16:26:18.795Z,5.42
2019-05-25T16:28:49.735Z,6.00
2019-05-25T16:31:21.894Z,5.58
2019-05-25T16:33:52.596Z,8.05
2019-05-25T16:36:23.570Z,9.28
2019-05-25T16:38:55.066Z,6.25
2019-05-25T16:41:26.662Z,4.87
2019-05-25T16:43:57.257Z,5.03
2019-05-25T16:47:01.502Z,7.92
2019-05-25T16:49:31.982Z,4.50
2019-05-25T16:52:02.507Z,6.23
2019-05-25T16:54:33.122Z,10.70
2019-05-25T16:57:04.048Z,6.03
2019-05-25T16:59:34.528Z,9.98
2019-05-25T17:02:05.100Z,4.78
2019-05-25T17:04:35.681Z,6.12
2019-05-25T17:07:06.927Z,4.50
2019-05-25T17:09:38.185Z,4.70
2019-05-25T17:12:08.779Z,4.90
2019-05-25T17:14:39.288Z,4.58
2019-05-25T17:17:09.952Z,11.95
2019-05-25T17:19:41.838Z,6.65
2019-05-25T17:22:14.643Z,5.72
2019-05-25T17:24:45.349Z,6.00
2019-05-25T17:27:16.368Z,4.95
2019-05-25T17:29:46.892Z,6.10
2019-05-25T17:32:19.057Z,6.03
2019-05-25T17:34:49.733Z,5.75
2019-05-25T17:37:20.251Z,5.53
2019-05-25T17:39:51.068Z,5.70
2019-05-25T17:42:21.887Z,6.78
2019-05-25T17:44:52.585Z,4.80
2019-05-25T17:47:23.595Z,5.90
2019-05-25T17:49:54.734Z,6.37
2019-05-25T17:52:25.644Z,7.15
2019-05-25T17:54:56.334Z,8.53
2019-05-25T17:57:27.511Z,11.25
2019-05-25T17:59:59.715Z,9.95
2019-05-25T18:02:31.870Z,9.23
2019-05-25T18:05:05.876Z,9.10
2019-05-25T18:07:36.752Z,7.72
2019-05-25T18:10:07.739Z,9.33
2019-05-25T18:12:38.329Z,9.70
2019-05-25T18:15:09.473Z,7.50
2019-05-25T18:17:40.797Z,8.13
2019-05-25T18:20:14.015Z,10.70
2019-05-25T18:22:44.956Z,8.95
2019-05-25T18:25:15.996Z,8.25
2019-05-25T18:27:48.871Z,10.58
2019-05-25T18:30:20.334Z,9.80
2019-05-25T18:32:51.188Z,8.65
2019-05-25T18:35:22.059Z,9.80
2019-05-25T18:37:52.853Z,10.20
2019-05-25T18:40:23.838Z,11.80
2019-05-25T18:42:54.445Z,10.82
2019-05-25T18:45:25.169Z,7.83
2019-05-25T18:47:56.359Z,12.97
2019-05-25T18:50:27.866Z,8.80
2019-05-25T18:52:58.523Z,13.18
2019-05-25T18:55:29.255Z,8.60
2019-05-25T18:57:59.743Z,9.48
2019-05-25T19:00:57.383Z,9.25
2019-05-25T19:03:28.970Z,8.38
2019-05-25T19:06:00.127Z,10.23
2019-05-25T19:08:30.960Z,8.28
2019-05-25T19:11:01.569Z,9.70
2019-05-25T19:13:33.180Z,8.13
2019-05-25T19:16:04.205Z,7.45
2019-05-25T19:18:35.018Z,6.77
2019-05-25T19:21:05.943Z,6.95
2019-05-25T19:23:37.207Z,8.78
2019-05-25T19:26:08.505Z,8.20
2019-05-25T19:28:39.215Z,10.15
2019-05-25T19:31:10.352Z,9.80
2019-05-25T19:33:40.952Z,10.28
2019-05-25T19:36:11.441Z,6.63
2019-05-25T19:38:42.612Z,9.23
2019-05-25T19:41:14.406Z,7.20
2019-05-25T19:43:46.239Z,10.18
2019-05-25T19:46:17.851Z,14.38
2019-05-25T19:48:49.158Z,11.00
2019-05-25T19:51:20.024Z,8.88
2019-05-25T19:53:51.166Z,8.33
2019-05-25T19:56:23.240Z,8.45
2019-05-25T19:58:54.341Z,9.97
2019-05-25T20:01:25.088Z,8.08
2019-05-25T20:03:57.396Z,12.82
2019-05-25T20:06:28.191Z,9.13
2019-05-25T20:08:58.934Z,8.10
2019-05-25T20:11:34.514Z,8.30
2019-05-25T20:14:06.373Z,8.90
2019-05-25T20:16:37.204Z,7.37
2019-05-25T20:19:08.020Z,9.10
2019-05-25T20:21:39.321Z,8.43
2019-05-25T20:24:10.026Z,10.93
2019-05-25T20:26:40.652Z,8.08
2019-05-25T20:29:12.383Z,12.98
2019-05-25T20:31:43.719Z,8.38
2019-05-25T20:34:14.298Z,9.93
2019-05-25T20:36:44.771Z,13.30
2019-05-25T20:39:15.925Z,8.58
2019-05-25T20:41:46.820Z,12.13
2019-05-25T20:44:17.462Z,16.57
2019-05-25T20:46:47.980Z,9.98
2019-05-25T20:49:18.669Z,10.00
2019-05-25T20:51:49.549Z,9.80
2019-05-25T20:54:21.187Z,9.13
2019-05-25T20:56:52.558Z,9.03
2019-05-25T20:59:24.094Z,9.73
2019-05-25T21:01:54.651Z,9.70
2019-05-25T21:04:25.363Z,9.98
2019-05-25T21:06:55.968Z,10.58
2019-05-25T21:09:26.539Z,9.68
2019-05-25T21:11:57.439Z,10.45
2019-05-25T21:14:28.928Z,8.63
2019-05-25T21:16:59.435Z,9.50
2019-05-25T21:19:29.983Z,11.25
2019-05-25T21:22:00.542Z,7.92
2019-05-25T21:24:31.188Z,9.70
2019-05-25T21:27:01.737Z,9.53
2019-05-25T21:29:32.631Z,19.82
2019-05-25T21:32:57.245Z,11.18
2019-05-25T21:35:27.856Z,10.43
2019-05-25T21:37:58.549Z,9.93
2019-05-25T21:40:29.551Z,9.75
2019-05-25T21:43:00.217Z,8.73
2019-05-25T21:45:30.892Z,8.77
2019-05-25T21:48:01.862Z,10.43
2019-05-25T21:50:33.250Z,15.13
2019-05-25T21:53:03.762Z,11.50
2019-05-25T21:55:34.301Z,10.03
2019-05-25T21:58:04.823Z,8.50
2019-05-25T22:00:38.624Z,10.80
2019-05-25T22:03:09.163Z,9.77
2019-05-25T22:05:39.948Z,9.97
2019-05-25T22:08:11.219Z,9.50
2019-05-25T22:10:41.651Z,9.90
2019-05-25T22:13:27.450Z,9.95
2019-05-25T22:15:47.394Z,9.93
2019-05-25T22:18:17.879Z,9.48
2019-05-25T22:20:48.771Z,9.95
2019-05-25T22:23:19.745Z,10.45
2019-05-25T22:25:50.348Z,10.18
2019-05-25T22:28:21.363Z,9.33
2019-05-25T22:30:52.027Z,11.33
2019-05-25T22:33:22.900Z,8.88
2019-05-25T22:35:53.815Z,10.25
2019-05-25T22:38:24.363Z,15.43
2019-05-25T22:40:54.917Z,11.78
2019-05-25T22:43:25.452Z,9.88
2019-05-25T22:45:55.987Z,8.68
2019-05-25T22:48:26.913Z,8.78
2019-05-25T22:50:57.411Z,10.53
2019-05-25T22:53:27.992Z,10.35
2019-05-25T22:55:59.506Z,11.33
2019-05-25T22:58:30.470Z,10.00
2019-05-25T23:01:00.950Z,10.08
2019-05-25T23:03:31.483Z,9.80
2019-05-25T23:06:01.978Z,9.53
2019-05-25T23:08:32.502Z,9.37
2019-05-25T23:11:03.315Z,10.45
2019-05-25T23:13:33.810Z,10.72
2019-05-25T23:16:04.330Z,9.43
2019-05-25T23:18:35.406Z,10.03
2019-05-25T23:21:06.615Z,9.55
2019-05-25T23:23:37.295Z,9.63
2019-05-25T23:26:07.814Z,8.97
2019-05-25T23:28:38.250Z,10.35
2019-05-25T23:31:09.683Z,10.58
2019-05-25T23:33:41.271Z,10.23
2019-05-25T23:36:12.663Z,10.45
2019-05-25T23:38:43.423Z,11.12
2019-05-25T23:41:14.675Z,9.85
2019-05-25T23:43:46.127Z,9.87
2019-05-25T23:46:16.623Z,14.35
2019-05-25T23:48:47.142Z,11.50
2019-05-25T23:51:18.044Z,11.22
2019-05-25T23:53:49.547Z,11.83
2019-05-25T23:56:20.177Z,10.48
2019-05-25T23:58:51.268Z,10.68
